Bw Arctic — 3EDI6 — position and weather

sailwx.info

Track history (hours):
 
Tides and Currents Weather Stations Pressure Air Temp Water Temp Dewpoint Dewpoint Depression Visibility Wind Speed Wind Dir Waves Ship Positions

Bw Arctic

Last reported at 2017-Oct-19 09:19 UTC. Time now 2017-Nov-19 14:18 UTC.
Position S 02°03' W 044°06'.
Warning: this ship's position is 31 days out of date.

Length 292 m; beam 48 m; draft 17.2 m.

Type: Cargo ship. MMSI: 371579000.

Date/timePositionNaut miles runAvg speedWind from/ knotsBaromVisibWave heightAir tempDewpointWater temp
2017-Oct-19 09:19S 02°03' W 044°06'3 9.6
2017-Oct-19 09:00S 02°06' W 044°08'5 9.4
2017-Oct-19 08:30S 02°10' W 044°10'5 9.0
2017-Oct-19 07:59S 02°14' W 044°13'4 8.6
2017-Oct-19 07:30S 02°17' W 044°15'4 7.9
2017-Oct-19 07:00S 02°21' W 044°17'4 7.5
2017-Oct-19 06:31S 02°24' W 044°19'4 7.7
2017-Oct-19 06:00S 02°27' W 044°21'4 7.7
2017-Oct-19 05:30S 02°30' W 044°23'3 5.2
2017-Oct-19 05:00S 02°33' W 044°23'1 1.7
2017-Oct-19 04:28S 02°34' W 044°23'0 0.0
2017-Oct-19 03:31S 02°34' W 044°23'0 0.1
2017-Oct-19 03:25S 02°34' W 044°23'0 0.0
2017-Oct-19 02:58S 02°34' W 044°23'0 0.0
2017-Oct-19 02:28S 02°34' W 044°23'0 0.0
2017-Oct-19 01:58S 02°34' W 044°23'0 0.0
2017-Oct-19 01:22S 02°34' W 044°23'0 0.0
2017-Oct-19 00:58S 02°34' W 044°23'0 0.0
2017-Oct-19 00:28S 02°34' W 044°23'0 0.0
2017-Oct-18 23:58S 02°34' W 044°23'0 0.0
2017-Oct-18 23:28S 02°34' W 044°23'0 0.0
2017-Oct-18 22:58S 02°34' W 044°23'0 0.0
2017-Oct-18 22:28S 02°34' W 044°23'0 0.0
2017-Oct-18 21:58S 02°34' W 044°23'0 0.0
2017-Oct-18 21:28S 02°34' W 044°23'0 0.0
2017-Oct-18 20:58S 02°34' W 044°23'0 0.0
2017-Oct-18 20:16S 02°34' W 044°23'0 0.0
2017-Oct-18 19:49S 02°34' W 044°23'0 0.0
2017-Oct-18 19:28S 02°34' W 044°23'0 0.0
2017-Oct-18 18:58S 02°34' W 044°23'0 0.0
2017-Oct-18 18:28S 02°34' W 044°23'0 0.0
2017-Oct-18 17:58S 02°34' W 044°23'0 0.0
2017-Oct-18 17:28S 02°34' W 044°23'0 0.0
2017-Oct-18 16:58S 02°34' W 044°23'0 0.0
2017-Oct-18 16:28S 02°34' W 044°23'0 0.0
2017-Oct-18 15:58S 02°34' W 044°23'0 0.0
2017-Oct-18 15:28S 02°34' W 044°23'0 0.0
2017-Oct-18 14:58S 02°34' W 044°23'0 0.0
2017-Oct-18 13:46S 02°34' W 044°23'0 0.0
2017-Oct-18 13:25S 02°34' W 044°23'0 0.0
2017-Oct-18 12:58S 02°34' W 044°23'0 0.0
2017-Oct-18 12:28S 02°34' W 044°23'0 0.0
2017-Oct-18 11:58S 02°34' W 044°23'0 0.0
2017-Oct-18 11:28S 02°34' W 044°23'0 0.0
2017-Oct-18 10:58S 02°34' W 044°23'0 0.0
2017-Oct-18 10:28S 02°34' W 044°23'0 0.0
2017-Oct-18 09:58S 02°34' W 044°23'0 0.0
2017-Oct-18 09:28S 02°34' W 044°23'0 0.0
2017-Oct-18 08:58S 02°34' W 044°23'0 0.0
2017-Oct-18 08:30S 02°34' W 044°23'1 1.5
2017-Oct-18 08:00S 02°34' W 044°24'4 8.3
2017-Oct-18 07:30S 02°30' W 044°23'510.7
2017-Oct-18 07:00S 02°25' W 044°20'4 7.2
2017-Oct-18 06:30S 02°22' W 044°18'4 7.5
2017-Oct-18 06:00S 02°19' W 044°16'4 8.4
2017-Oct-18 05:30S 02°15' W 044°14'611.1
2017-Oct-18 05:00S 02°11' W 044°12'4 8.6
2017-Oct-18 04:30S 02°07' W 044°09'2 4.1
2017-Oct-18 03:59S 02°09' W 044°08'0 0.2
2017-Oct-18 03:20S 02°09' W 044°08'0 0.0
2017-Oct-18 02:59S 02°09' W 044°08'0 0.0
2017-Oct-18 02:29S 02°09' W 044°08'0 0.0
2017-Oct-18 01:59S 02°09' W 044°08'0 0.2
2017-Oct-18 01:26S 02°09' W 044°08'0 0.1
2017-Oct-18 00:23S 02°09' W 044°08'0 0.0
2017-Oct-17 23:59S 02°09' W 044°07'0 0.1
2017-Oct-17 22:59S 02°09' W 044°08'0 0.1
2017-Oct-17 22:20S 02°09' W 044°08'0 0.1
2017-Oct-17 21:56S 02°09' W 044°08'0 0.1
2017-Oct-17 21:29S 02°09' W 044°08'0 0.0
2017-Oct-17 20:59S 02°09' W 044°08'0 0.1
2017-Oct-17 20:23S 02°09' W 044°08'0 0.0
2017-Oct-17 19:59S 02°09' W 044°08'0 0.0
2017-Oct-17 19:14S 02°09' W 044°08'0 0.0
2017-Oct-17 18:59S 02°09' W 044°08'0 0.0
2017-Oct-17 18:26S 02°09' W 044°08'0 0.0
2017-Oct-17 17:50S 02°09' W 044°08'0 0.0
2017-Oct-17 17:26S 02°09' W 044°08'0 0.0
2017-Oct-17 16:59S 02°09' W 044°08'0 0.0
2017-Oct-17 16:26S 02°09' W 044°08'0 0.0
2017-Oct-17 15:59S 02°09' W 044°08'0 0.1
2017-Oct-17 15:29S 02°09' W 044°08'0 0.1
2017-Oct-17 14:56S 02°09' W 044°08'0 0.1
2017-Oct-17 14:23S 02°09' W 044°08'0 0.0
2017-Oct-17 13:53S 02°09' W 044°08'0 0.2
2017-Oct-17 13:26S 02°09' W 044°08'0 0.1
2017-Oct-17 13:00S 02°09' W 044°08'0 0.1
2017-Oct-17 12:29S 02°09' W 044°08'0 0.0
2017-Oct-17 11:59S 02°09' W 044°08'0 0.0
2017-Oct-17 11:23S 02°09' W 044°08'0 0.1
2017-Oct-17 10:32S 02°09' W 044°08'0 0.1
2017-Oct-17 10:29S 02°09' W 044°08'0 0.1
2017-Oct-17 09:59S 02°09' W 044°08'0 0.2
2017-Oct-17 09:26S 02°09' W 044°08'0 0.1
2017-Oct-17 08:56S 02°09' W 044°08'0 0.0
2017-Oct-17 08:26S 02°09' W 044°08'0 0.0
2017-Oct-17 07:59S 02°09' W 044°08'0 0.1
2017-Oct-17 07:26S 02°09' W 044°08'0 0.0
2017-Oct-17 06:47S 02°09' W 044°08'0 0.0
2017-Oct-17 06:29S 02°09' W 044°08'0 0.0
2017-Oct-17 04:47S 02°09' W 044°08'0 0.0
2017-Oct-17 02:53S 02°09' W 044°08'0 0.0
2017-Oct-17 02:29S 02°09' W 044°08'0 0.1
2017-Oct-17 01:59S 02°09' W 044°08'0 0.0
2017-Oct-17 01:20S 02°09' W 044°08'0 0.1
2017-Oct-16 23:38S 02°09' W 044°07'0 0.0
2017-Oct-16 23:26S 02°09' W 044°07'0 0.1
2017-Oct-16 22:14S 02°09' W 044°08'0 0.1
2017-Oct-16 20:53S 02°09' W 044°08'0 0.0
2017-Oct-16 20:23S 02°09' W 044°08'0 0.0
2017-Oct-16 19:53S 02°09' W 044°08'0 0.1
2017-Oct-16 19:20S 02°09' W 044°08'0 0.0
2017-Oct-16 18:59S 02°09' W 044°08'0 0.0
2017-Oct-16 18:26S 02°09' W 044°08'0 0.0
2017-Oct-16 17:53S 02°09' W 044°08'0 0.0
2017-Oct-16 17:29S 02°09' W 044°08'0 0.0
2017-Oct-16 16:59S 02°09' W 044°08'0 0.0
2017-Oct-16 16:23S 02°09' W 044°08'0 0.0
2017-Oct-16 15:59S 02°09' W 044°08'0 0.0
2017-Oct-16 15:29S 02°09' W 044°08'0 0.0
2017-Oct-16 14:59S 02°09' W 044°08'0 0.0
2017-Oct-16 14:29S 02°09' W 044°08'0 0.0
2017-Oct-16 13:29S 02°09' W 044°08'0 0.1
2017-Oct-16 12:59S 02°09' W 044°08'0 0.3
2017-Oct-16 12:23S 02°09' W 044°08'0 0.1
2017-Oct-16 11:59S 02°09' W 044°07'0 0.1
2017-Oct-16 11:26S 02°09' W 044°07'0 0.0
2017-Oct-16 10:59S 02°09' W 044°07'0 0.0
2017-Oct-16 04:11S 02°09' W 044°08'0 0.0
2017-Oct-16 03:56S 02°09' W 044°08'0 0.1
2017-Oct-16 03:29S 02°09' W 044°08'0 0.0
2017-Oct-16 02:50S 02°09' W 044°08'0 0.0
2017-Oct-16 02:29S 02°09' W 044°08'0 0.1
2017-Oct-16 01:59S 02°09' W 044°08'0 0.0
2017-Oct-16 01:26S 02°09' W 044°08'0 0.0
2017-Oct-16 00:59S 02°09' W 044°08'0 0.0
2017-Oct-16 00:29S 02°09' W 044°08'0 0.3
2017-Oct-15 23:56S 02°09' W 044°08'0 0.1
2017-Oct-15 23:20S 02°09' W 044°08'0 0.1
2017-Oct-15 22:59S 02°09' W 044°07'0 0.0
2017-Oct-15 22:29S 02°09' W 044°07'0 0.1
2017-Oct-15 21:35S 02°09' W 044°08'0 0.2
2017-Oct-15 21:29S 02°09' W 044°08'0 0.2
2017-Oct-15 20:59S 02°09' W 044°08'0 0.1
2017-Oct-15 20:26S 02°09' W 044°08'0 0.1
2017-Oct-15 19:56S 02°09' W 044°08'0 0.0
2017-Oct-15 19:20S 02°09' W 044°08'0 0.1
2017-Oct-15 18:59S 02°09' W 044°08'0 0.0
2017-Oct-15 17:47S 02°09' W 044°08'0 0.0
2017-Oct-15 17:26S 02°09' W 044°08'0 0.0
2017-Oct-15 16:59S 02°09' W 044°08'0 0.0
2017-Oct-15 16:20S 02°09' W 044°08'0 0.0
2017-Oct-15 15:50S 02°09' W 044°08'0 0.0
2017-Oct-15 15:29S 02°09' W 044°08'0 0.0
2017-Oct-15 13:19S 02°09' W 044°08'0 0.0
2017-Oct-15 12:55S 02°09' W 044°08'0 0.0
2017-Oct-15 12:13S 02°09' W 044°08'0 0.1
2017-Oct-15 11:53S 02°09' W 044°08'0 0.2
2017-Oct-15 11:28S 02°09' W 044°08'0 0.2
2017-Oct-15 10:52S 02°09' W 044°08'0 0.1
2017-Oct-15 07:40S 02°09' W 044°08'0 0.0
2017-Oct-15 07:12S 02°09' W 044°08'0 0.2
2017-Oct-15 06:49S 02°09' W 044°08'0 0.0
2017-Oct-15 06:20S 02°09' W 044°08'0 0.1
2017-Oct-15 05:59S 02°09' W 044°08'0 0.0
2017-Oct-15 05:26S 02°09' W 044°08'0 0.0
2017-Oct-15 04:59S 02°09' W 044°08'0 0.0
2017-Oct-15 04:23S 02°09' W 044°08'0 0.0
2017-Oct-15 03:59S 02°09' W 044°08'0 0.0
2017-Oct-15 03:29S 02°09' W 044°08'0 0.0
2017-Oct-15 02:50S 02°09' W 044°08'0 0.0
2017-Oct-15 02:20S 02°09' W 044°08'0 0.0
2017-Oct-15 01:59S 02°09' W 044°08'0 0.0
2017-Oct-15 01:23S 02°09' W 044°08'0 0.1
2017-Oct-15 00:59S 02°09' W 044°08'0 0.0
2017-Oct-15 00:14S 02°09' W 044°08'0 0.0
2017-Oct-14 23:47S 02°09' W 044°08'0 0.0
2017-Oct-14 23:17S 02°09' W 044°08'0 0.3
2017-Oct-14 22:53S 02°09' W 044°08'0 0.1
2017-Oct-14 21:14S 02°09' W 044°08'0 0.1
2017-Oct-14 20:59S 02°09' W 044°08'0 0.2
2017-Oct-14 20:29S 02°09' W 044°08'0 0.1
2017-Oct-14 19:53S 02°09' W 044°08'0 0.1
2017-Oct-14 19:23S 02°09' W 044°08'0 0.1
2017-Oct-14 18:59S 02°09' W 044°08'0 0.0
2017-Oct-14 18:29S 02°09' W 044°08'0 0.0
2017-Oct-14 17:53S 02°09' W 044°08'0 0.0
2017-Oct-14 17:23S 02°09' W 044°08'0 0.0
2017-Oct-14 16:53S 02°09' W 044°08'0 0.0
2017-Oct-14 16:23S 02°09' W 044°08'0 0.0
2017-Oct-14 15:59S 02°09' W 044°08'0 0.0
2017-Oct-14 15:26S 02°09' W 044°08'0 0.0
2017-Oct-14 14:59S 02°09' W 044°08'0 0.0
2017-Oct-14 14:29S 02°09' W 044°08'0 0.0
2017-Oct-14 13:59S 02°09' W 044°08'0 0.0
2017-Oct-14 13:29S 02°09' W 044°08'0 0.0
2017-Oct-14 12:59S 02°09' W 044°08'0 0.0
2017-Oct-14 12:29S 02°09' W 044°08'0 0.0
2017-Oct-14 11:59S 02°09' W 044°08'0 0.1
2017-Oct-14 11:29S 02°09' W 044°08'0 0.0
2017-Oct-14 10:59S 02°09' W 044°08'0 0.0
2017-Oct-14 10:29S 02°09' W 044°08'0 0.1
2017-Oct-14 09:59S 02°09' W 044°08'0 0.1
2017-Oct-14 09:29S 02°09' W 044°08'0 0.1
2017-Oct-14 08:56S 02°09' W 044°08'0 0.0
2017-Oct-14 08:29S 02°09' W 044°08'0 0.0
2017-Oct-14 07:56S 02°09' W 044°08'0 0.1
2017-Oct-14 07:23S 02°09' W 044°08'0 0.0
2017-Oct-14 06:56S 02°09' W 044°08'0 0.1
2017-Oct-14 06:29S 02°09' W 044°08'0 0.0
2017-Oct-14 05:17S 02°09' W 044°08'0 0.2
2017-Oct-14 04:56S 02°09' W 044°08'0 0.0
2017-Oct-14 04:29S 02°09' W 044°08'0 0.0
2017-Oct-14 03:44S 02°09' W 044°08'0 0.0
2017-Oct-14 03:14S 02°09' W 044°08'0 0.0
2017-Oct-14 02:53S 02°09' W 044°08'0 0.0
2017-Oct-14 02:29S 02°09' W 044°08'0 0.0
2017-Oct-14 01:59S 02°09' W 044°08'0 0.0
2017-Oct-14 01:29S 02°09' W 044°08'0 0.0
2017-Oct-14 00:56S 02°09' W 044°08'0 0.0
2017-Oct-14 00:26S 02°09' W 044°08'0 0.0
2017-Oct-13 23:56S 02°09' W 044°08'0 0.1
2017-Oct-13 23:30S 02°09' W 044°08'0 0.0
2017-Oct-13 22:56S 02°09' W 044°08'0 0.0
2017-Oct-13 22:29S 02°09' W 044°08'0 0.0
2017-Oct-13 21:59S 02°09' W 044°08'0 0.2
2017-Oct-13 21:17S 02°09' W 044°08'0 0.3
2017-Oct-13 20:59S 02°09' W 044°08'0 0.1
2017-Oct-13 20:31S 02°09' W 044°07'1 2.5
2017-Oct-13 20:01S 02°08' W 044°08'3 5.1
2017-Oct-13 19:31S 02°05' W 044°08'3 5.5
2017-Oct-13 19:01S 02°03' W 044°06'5 8.8
2017-Oct-13 18:27S 01°59' W 044°03'  
Track history (hours):
 
Tides and Currents Weather Stations Pressure Air Temp Water Temp Dewpoint Dewpoint Depression Visibility Wind Speed Wind Dir Waves Ship Positions

Bw Arctic

Last reported at 2017-Oct-19 09:19 UTC. Time now 2017-Nov-19 14:18 UTC.
Position S 02°03' W 044°06'.
Warning: this ship's position is 31 days out of date.

Length 292 m; beam 48 m; draft 17.2 m.

Type: Cargo ship. MMSI: 371579000.

Date/timePositionNaut miles runAvg speedWind from/ knotsBaromVisibWave heightAir tempDewpointWater temp
2017-Oct-19 09:19S 02°03' W 044°06'3 9.6
2017-Oct-19 09:00S 02°06' W 044°08'5 9.4
2017-Oct-19 08:30S 02°10' W 044°10'5 9.0
2017-Oct-19 07:59S 02°14' W 044°13'4 8.6
2017-Oct-19 07:30S 02°17' W 044°15'4 7.9
2017-Oct-19 07:00S 02°21' W 044°17'4 7.5
2017-Oct-19 06:31S 02°24' W 044°19'4 7.7
2017-Oct-19 06:00S 02°27' W 044°21'4 7.7
2017-Oct-19 05:30S 02°30' W 044°23'3 5.2
2017-Oct-19 05:00S 02°33' W 044°23'1 1.7
2017-Oct-19 04:28S 02°34' W 044°23'0 0.0
2017-Oct-19 03:31S 02°34' W 044°23'0 0.1
2017-Oct-19 03:25S 02°34' W 044°23'0 0.0
2017-Oct-19 02:58S 02°34' W 044°23'0 0.0
2017-Oct-19 02:28S 02°34' W 044°23'0 0.0
2017-Oct-19 01:58S 02°34' W 044°23'0 0.0
2017-Oct-19 01:22S 02°34' W 044°23'0 0.0
2017-Oct-19 00:58S 02°34' W 044°23'0 0.0
2017-Oct-19 00:28S 02°34' W 044°23'0 0.0
2017-Oct-18 23:58S 02°34' W 044°23'0 0.0
2017-Oct-18 23:28S 02°34' W 044°23'0 0.0
2017-Oct-18 22:58S 02°34' W 044°23'0 0.0
2017-Oct-18 22:28S 02°34' W 044°23'0 0.0
2017-Oct-18 21:58S 02°34' W 044°23'0 0.0
2017-Oct-18 21:28S 02°34' W 044°23'0 0.0
2017-Oct-18 20:58S 02°34' W 044°23'0 0.0
2017-Oct-18 20:16S 02°34' W 044°23'0 0.0
2017-Oct-18 19:49S 02°34' W 044°23'0 0.0
2017-Oct-18 19:28S 02°34' W 044°23'0 0.0
2017-Oct-18 18:58S 02°34' W 044°23'0 0.0
2017-Oct-18 18:28S 02°34' W 044°23'0 0.0
2017-Oct-18 17:58S 02°34' W 044°23'0 0.0
2017-Oct-18 17:28S 02°34' W 044°23'0 0.0
2017-Oct-18 16:58S 02°34' W 044°23'0 0.0
2017-Oct-18 16:28S 02°34' W 044°23'0 0.0
2017-Oct-18 15:58S 02°34' W 044°23'0 0.0
2017-Oct-18 15:28S 02°34' W 044°23'0 0.0
2017-Oct-18 14:58S 02°34' W 044°23'0 0.0
2017-Oct-18 13:46S 02°34' W 044°23'0 0.0
2017-Oct-18 13:25S 02°34' W 044°23'0 0.0
2017-Oct-18 12:58S 02°34' W 044°23'0 0.0
2017-Oct-18 12:28S 02°34' W 044°23'0 0.0
2017-Oct-18 11:58S 02°34' W 044°23'0 0.0
2017-Oct-18 11:28S 02°34' W 044°23'0 0.0
2017-Oct-18 10:58S 02°34' W 044°23'0 0.0
2017-Oct-18 10:28S 02°34' W 044°23'0 0.0
2017-Oct-18 09:58S 02°34' W 044°23'0 0.0
2017-Oct-18 09:28S 02°34' W 044°23'0 0.0
2017-Oct-18 08:58S 02°34' W 044°23'0 0.0
2017-Oct-18 08:30S 02°34' W 044°23'1 1.5
2017-Oct-18 08:00S 02°34' W 044°24'4 8.3
2017-Oct-18 07:30S 02°30' W 044°23'510.7
2017-Oct-18 07:00S 02°25' W 044°20'4 7.2
2017-Oct-18 06:30S 02°22' W 044°18'4 7.5
2017-Oct-18 06:00S 02°19' W 044°16'4 8.4
2017-Oct-18 05:30S 02°15' W 044°14'611.1
2017-Oct-18 05:00S 02°11' W 044°12'4 8.6
2017-Oct-18 04:30S 02°07' W 044°09'2 4.1
2017-Oct-18 03:59S 02°09' W 044°08'0 0.2
2017-Oct-18 03:20S 02°09' W 044°08'0 0.0
2017-Oct-18 02:59S 02°09' W 044°08'0 0.0
2017-Oct-18 02:29S 02°09' W 044°08'0 0.0
2017-Oct-18 01:59S 02°09' W 044°08'0 0.2
2017-Oct-18 01:26S 02°09' W 044°08'0 0.1
2017-Oct-18 00:23S 02°09' W 044°08'0 0.0
2017-Oct-17 23:59S 02°09' W 044°07'0 0.1
2017-Oct-17 22:59S 02°09' W 044°08'0 0.1
2017-Oct-17 22:20S 02°09' W 044°08'0 0.1
2017-Oct-17 21:56S 02°09' W 044°08'0 0.1
2017-Oct-17 21:29S 02°09' W 044°08'0 0.0
2017-Oct-17 20:59S 02°09' W 044°08'0 0.1
2017-Oct-17 20:23S 02°09' W 044°08'0 0.0
2017-Oct-17 19:59S 02°09' W 044°08'0 0.0
2017-Oct-17 19:14S 02°09' W 044°08'0 0.0
2017-Oct-17 18:59S 02°09' W 044°08'0 0.0
2017-Oct-17 18:26S 02°09' W 044°08'0 0.0
2017-Oct-17 17:50S 02°09' W 044°08'0 0.0
2017-Oct-17 17:26S 02°09' W 044°08'0 0.0
2017-Oct-17 16:59S 02°09' W 044°08'0 0.0
2017-Oct-17 16:26S 02°09' W 044°08'0 0.0
2017-Oct-17 15:59S 02°09' W 044°08'0 0.1
2017-Oct-17 15:29S 02°09' W 044°08'0 0.1
2017-Oct-17 14:56S 02°09' W 044°08'0 0.1
2017-Oct-17 14:23S 02°09' W 044°08'0 0.0
2017-Oct-17 13:53S 02°09' W 044°08'0 0.2
2017-Oct-17 13:26S 02°09' W 044°08'0 0.1
2017-Oct-17 13:00S 02°09' W 044°08'0 0.1
2017-Oct-17 12:29S 02°09' W 044°08'0 0.0
2017-Oct-17 11:59S 02°09' W 044°08'0 0.0
2017-Oct-17 11:23S 02°09' W 044°08'0 0.1
2017-Oct-17 10:32S 02°09' W 044°08'0 0.1
2017-Oct-17 10:29S 02°09' W 044°08'0 0.1
2017-Oct-17 09:59S 02°09' W 044°08'0 0.2
2017-Oct-17 09:26S 02°09' W 044°08'0 0.1
2017-Oct-17 08:56S 02°09' W 044°08'0 0.0
2017-Oct-17 08:26S 02°09' W 044°08'0 0.0
2017-Oct-17 07:59S 02°09' W 044°08'0 0.1
2017-Oct-17 07:26S 02°09' W 044°08'0 0.0
2017-Oct-17 06:47S 02°09' W 044°08'0 0.0
2017-Oct-17 06:29S 02°09' W 044°08'0 0.0
2017-Oct-17 04:47S 02°09' W 044°08'0 0.0
2017-Oct-17 02:53S 02°09' W 044°08'0 0.0
2017-Oct-17 02:29S 02°09' W 044°08'0 0.1
2017-Oct-17 01:59S 02°09' W 044°08'0 0.0
2017-Oct-17 01:20S 02°09' W 044°08'0 0.1
2017-Oct-16 23:38S 02°09' W 044°07'0 0.0
2017-Oct-16 23:26S 02°09' W 044°07'0 0.1
2017-Oct-16 22:14S 02°09' W 044°08'0 0.1
2017-Oct-16 20:53S 02°09' W 044°08'0 0.0
2017-Oct-16 20:23S 02°09' W 044°08'0 0.0
2017-Oct-16 19:53S 02°09' W 044°08'0 0.1
2017-Oct-16 19:20S 02°09' W 044°08'0 0.0
2017-Oct-16 18:59S 02°09' W 044°08'0 0.0
2017-Oct-16 18:26S 02°09' W 044°08'0 0.0
2017-Oct-16 17:53S 02°09' W 044°08'0 0.0
2017-Oct-16 17:29S 02°09' W 044°08'0 0.0
2017-Oct-16 16:59S 02°09' W 044°08'0 0.0
2017-Oct-16 16:23S 02°09' W 044°08'0 0.0
2017-Oct-16 15:59S 02°09' W 044°08'0 0.0
2017-Oct-16 15:29S 02°09' W 044°08'0 0.0
2017-Oct-16 14:59S 02°09' W 044°08'0 0.0
2017-Oct-16 14:29S 02°09' W 044°08'0 0.0
2017-Oct-16 13:29S 02°09' W 044°08'0 0.1
2017-Oct-16 12:59S 02°09' W 044°08'0 0.3
2017-Oct-16 12:23S 02°09' W 044°08'0 0.1
2017-Oct-16 11:59S 02°09' W 044°07'0 0.1
2017-Oct-16 11:26S 02°09' W 044°07'0 0.0
2017-Oct-16 10:59S 02°09' W 044°07'0 0.0
2017-Oct-16 04:11S 02°09' W 044°08'0 0.0
2017-Oct-16 03:56S 02°09' W 044°08'0 0.1
2017-Oct-16 03:29S 02°09' W 044°08'0 0.0
2017-Oct-16 02:50S 02°09' W 044°08'0 0.0
2017-Oct-16 02:29S 02°09' W 044°08'0 0.1
2017-Oct-16 01:59S 02°09' W 044°08'0 0.0
2017-Oct-16 01:26S 02°09' W 044°08'0 0.0
2017-Oct-16 00:59S 02°09' W 044°08'0 0.0
2017-Oct-16 00:29S 02°09' W 044°08'0 0.3
2017-Oct-15 23:56S 02°09' W 044°08'0 0.1
2017-Oct-15 23:20S 02°09' W 044°08'0 0.1
2017-Oct-15 22:59S 02°09' W 044°07'0 0.0
2017-Oct-15 22:29S 02°09' W 044°07'0 0.1
2017-Oct-15 21:35S 02°09' W 044°08'0 0.2
2017-Oct-15 21:29S 02°09' W 044°08'0 0.2
2017-Oct-15 20:59S 02°09' W 044°08'0 0.1
2017-Oct-15 20:26S 02°09' W 044°08'0 0.1
2017-Oct-15 19:56S 02°09' W 044°08'0 0.0
2017-Oct-15 19:20S 02°09' W 044°08'0 0.1
2017-Oct-15 18:59S 02°09' W 044°08'0 0.0
2017-Oct-15 17:47S 02°09' W 044°08'0 0.0
2017-Oct-15 17:26S 02°09' W 044°08'0 0.0
2017-Oct-15 16:59S 02°09' W 044°08'0 0.0
2017-Oct-15 16:20S 02°09' W 044°08'0 0.0
2017-Oct-15 15:50S 02°09' W 044°08'0 0.0
2017-Oct-15 15:29S 02°09' W 044°08'0 0.0
2017-Oct-15 13:19S 02°09' W 044°08'0 0.0
2017-Oct-15 12:55S 02°09' W 044°08'0 0.0
2017-Oct-15 12:13S 02°09' W 044°08'0 0.1
2017-Oct-15 11:53S 02°09' W 044°08'0 0.2
2017-Oct-15 11:28S 02°09' W 044°08'0 0.2
2017-Oct-15 10:52S 02°09' W 044°08'0 0.1
2017-Oct-15 07:40S 02°09' W 044°08'0 0.0
2017-Oct-15 07:12S 02°09' W 044°08'0 0.2
2017-Oct-15 06:49S 02°09' W 044°08'0 0.0
2017-Oct-15 06:20S 02°09' W 044°08'0 0.1
2017-Oct-15 05:59S 02°09' W 044°08'0 0.0
2017-Oct-15 05:26S 02°09' W 044°08'0 0.0
2017-Oct-15 04:59S 02°09' W 044°08'0 0.0
2017-Oct-15 04:23S 02°09' W 044°08'0 0.0
2017-Oct-15 03:59S 02°09' W 044°08'0 0.0
2017-Oct-15 03:29S 02°09' W 044°08'0 0.0
2017-Oct-15 02:50S 02°09' W 044°08'0 0.0
2017-Oct-15 02:20S 02°09' W 044°08'0 0.0
2017-Oct-15 01:59S 02°09' W 044°08'0 0.0
2017-Oct-15 01:23S 02°09' W 044°08'0 0.1
2017-Oct-15 00:59S 02°09' W 044°08'0 0.0
2017-Oct-15 00:14S 02°09' W 044°08'0 0.0
2017-Oct-14 23:47S 02°09' W 044°08'0 0.0
2017-Oct-14 23:17S 02°09' W 044°08'0 0.3
2017-Oct-14 22:53S 02°09' W 044°08'0 0.1
2017-Oct-14 21:14S 02°09' W 044°08'0 0.1
2017-Oct-14 20:59S 02°09' W 044°08'0 0.2
2017-Oct-14 20:29S 02°09' W 044°08'0 0.1
2017-Oct-14 19:53S 02°09' W 044°08'0 0.1
2017-Oct-14 19:23S 02°09' W 044°08'0 0.1
2017-Oct-14 18:59S 02°09' W 044°08'0 0.0
2017-Oct-14 18:29S 02°09' W 044°08'0 0.0
2017-Oct-14 17:53S 02°09' W 044°08'0 0.0
2017-Oct-14 17:23S 02°09' W 044°08'0 0.0
2017-Oct-14 16:53S 02°09' W 044°08'0 0.0
2017-Oct-14 16:23S 02°09' W 044°08'0 0.0
2017-Oct-14 15:59S 02°09' W 044°08'0 0.0
2017-Oct-14 15:26S 02°09' W 044°08'0 0.0
2017-Oct-14 14:59S 02°09' W 044°08'0 0.0
2017-Oct-14 14:29S 02°09' W 044°08'0 0.0
2017-Oct-14 13:59S 02°09' W 044°08'0 0.0
2017-Oct-14 13:29S 02°09' W 044°08'0 0.0
2017-Oct-14 12:59S 02°09' W 044°08'0 0.0
2017-Oct-14 12:29S 02°09' W 044°08'0 0.0
2017-Oct-14 11:59S 02°09' W 044°08'0 0.1
2017-Oct-14 11:29S 02°09' W 044°08'0 0.0
2017-Oct-14 10:59S 02°09' W 044°08'0 0.0
2017-Oct-14 10:29S 02°09' W 044°08'0 0.1
2017-Oct-14 09:59S 02°09' W 044°08'0 0.1
2017-Oct-14 09:29S 02°09' W 044°08'0 0.1
2017-Oct-14 08:56S 02°09' W 044°08'0 0.0
2017-Oct-14 08:29S 02°09' W 044°08'0 0.0
2017-Oct-14 07:56S 02°09' W 044°08'0 0.1
2017-Oct-14 07:23S 02°09' W 044°08'0 0.0
2017-Oct-14 06:56S 02°09' W 044°08'0 0.1
2017-Oct-14 06:29S 02°09' W 044°08'0 0.0
2017-Oct-14 05:17S 02°09' W 044°08'0 0.2
2017-Oct-14 04:56S 02°09' W 044°08'0 0.0
2017-Oct-14 04:29S 02°09' W 044°08'0 0.0
2017-Oct-14 03:44S 02°09' W 044°08'0 0.0
2017-Oct-14 03:14S 02°09' W 044°08'0 0.0
2017-Oct-14 02:53S 02°09' W 044°08'0 0.0
2017-Oct-14 02:29S 02°09' W 044°08'0 0.0
2017-Oct-14 01:59S 02°09' W 044°08'0 0.0
2017-Oct-14 01:29S 02°09' W 044°08'0 0.0
2017-Oct-14 00:56S 02°09' W 044°08'0 0.0
2017-Oct-14 00:26S 02°09' W 044°08'0 0.0
2017-Oct-13 23:56S 02°09' W 044°08'0 0.1
2017-Oct-13 23:30S 02°09' W 044°08'0 0.0
2017-Oct-13 22:56S 02°09' W 044°08'0 0.0
2017-Oct-13 22:29S 02°09' W 044°08'0 0.0
2017-Oct-13 21:59S 02°09' W 044°08'0 0.2
2017-Oct-13 21:17S 02°09' W 044°08'0 0.3
2017-Oct-13 20:59S 02°09' W 044°08'0 0.1
2017-Oct-13 20:31S 02°09' W 044°07'1 2.5
2017-Oct-13 20:01S 02°08' W 044°08'3 5.1
2017-Oct-13 19:31S 02°05' W 044°08'3 5.5
2017-Oct-13 19:01S 02°03' W 044°06'5 8.8
2017-Oct-13 18:27S 01°59' W 044°03'  

Dump ship's entire track history